Terminal Aerodrome Forecast
Issued by NWS

Home | Current Version | Previous Version | Text Only | Print | Product List | Glossary On
Versions: 1 2 3 4 5 6 7 8 9 10 11 12
000
FTUS46 KSTO 280534
TAFRDD
TAF
KRDD 280534Z 2806/2906 35009KT P6SM SKC
     FM281700 36015G25KT P6SM SKC
     FM282300 30004KT P6SM SKC=

USA.gov is the U.S. government's official web portal to all federal, state and local government web resources and services.